sensor_id;sensor_type;location;lat;lon;timestamp;pressure;altitude;pressure_sealevel;temperature;humidity
28344;BME280;15597;50.914;6.638;2023-03-20T00:01:24;101168.88;;;14.40;57.49
28344;BME280;15597;50.914;6.638;2023-03-20T00:03:51;101185.59;;;14.39;57.89
28344;BME280;15597;50.914;6.638;2023-03-20T00:06:19;101192.66;;;14.37;58.19
28344;BME280;15597;50.914;6.638;2023-03-20T00:08:46;101191.84;;;14.35;57.94
28344;BME280;15597;50.914;6.638;2023-03-20T00:13:52;101189.41;;;14.27;57.47
28344;BME280;15597;50.914;6.638;2023-03-20T00:16:17;101189.41;;;14.27;57.79
28344;BME280;15597;50.914;6.638;2023-03-20T00:18:43;101195.56;;;14.28;57.59
28344;BME280;15597;50.914;6.638;2023-03-20T00:21:16;101192.09;;;14.26;57.69
28344;BME280;15597;50.914;6.638;2023-03-20T00:23:42;101193.75;;;14.30;57.49
28344;BME280;15597;50.914;6.638;2023-03-20T00:26:17;101201.72;;;14.27;57.73
28344;BME280;15597;50.914;6.638;2023-03-20T00:28:48;101209.63;;;14.27;57.90
28344;BME280;15597;50.914;6.638;2023-03-20T00:33:43;101206.94;;;14.28;57.74
28344;BME280;15597;50.914;6.638;2023-03-20T00:36:09;101210.38;;;14.30;57.33
28344;BME280;15597;50.914;6.638;2023-03-20T00:38:35;101210.38;;;14.32;57.76
28344;BME280;15597;50.914;6.638;2023-03-20T00:41:01;101213.81;;;14.34;57.56
28344;BME280;15597;50.914;6.638;2023-03-20T00:43:27;101215.50;;;14.37;57.75
28344;BME280;15597;50.914;6.638;2023-03-20T00:45:53;101214.56;;;14.39;57.48
28344;BME280;15597;50.914;6.638;2023-03-20T00:48:19;101214.47;;;14.42;57.68
28344;BME280;15597;50.914;6.638;2023-03-20T00:50:48;101217.06;;;14.44;57.12
28344;BME280;15597;50.914;6.638;2023-03-20T00:53:14;101224.91;;;14.45;57.20
28344;BME280;15597;50.914;6.638;2023-03-20T00:55:39;101215.25;;;14.46;57.14
28344;BME280;15597;50.914;6.638;2023-03-20T00:58:05;101219.72;;;14.44;57.33
28344;BME280;15597;50.914;6.638;2023-03-20T01:00:41;101218.97;;;14.39;57.30
28344;BME280;15597;50.914;6.638;2023-03-20T01:03:25;101214.72;;;14.33;57.53
28344;BME280;15597;50.914;6.638;2023-03-20T01:05:51;101211.09;;;14.37;57.32
28344;BME280;15597;50.914;6.638;2023-03-20T01:08:19;101211.09;;;14.37;57.45
28344;BME280;15597;50.914;6.638;2023-03-20T01:10:54;101215.53;;;14.35;56.93
28344;BME280;15597;50.914;6.638;2023-03-20T01:13:26;101215.53;;;14.35;57.05
28344;BME280;15597;50.914;6.638;2023-03-20T01:15:54;101210.25;;;14.37;57.42
28344;BME280;15597;50.914;6.638;2023-03-20T01:18:22;101201.47;;;14.36;56.94
28344;BME280;15597;50.914;6.638;2023-03-20T01:20:49;101204.94;;;14.38;57.12
28344;BME280;15597;50.914;6.638;2023-03-20T01:23:15;101201.34;;;14.41;57.11
28344;BME280;15597;50.914;6.638;2023-03-20T01:25:41;101196.03;;;14.42;57.02
28344;BME280;15597;50.914;6.638;2023-03-20T01:28:16;101192.56;;;14.42;56.80
28344;BME280;15597;50.914;6.638;2023-03-20T01:30:43;101176.69;;;14.43;56.60
28344;BME280;15597;50.914;6.638;2023-03-20T01:33:15;101184.56;;;14.45;56.49
28344;BME280;15597;50.914;6.638;2023-03-20T01:35:43;101177.44;;;14.49;56.36
28344;BME280;15597;50.914;6.638;2023-03-20T01:38:17;101173.22;;;14.43;56.26
28344;BME280;15597;50.914;6.638;2023-03-20T01:41:04;101172.34;;;14.42;56.47
28344;BME280;15597;50.914;6.638;2023-03-20T01:43:32;101163.69;;;14.39;56.48
28344;BME280;15597;50.914;6.638;2023-03-20T01:53:42;101167.25;;;14.36;56.01
28344;BME280;15597;50.914;6.638;2023-03-20T01:56:11;101169.06;;;14.34;55.82
28344;BME280;15597;50.914;6.638;2023-03-20T01:58:48;101170.97;;;14.29;56.03
28344;BME280;15597;50.914;6.638;2023-03-20T02:01:17;101179.69;;;14.31;56.09
28344;BME280;15597;50.914;6.638;2023-03-20T02:03:46;101183.56;;;14.17;56.21
28344;BME280;15597;50.914;6.638;2023-03-20T02:06:23;101189.63;;;14.20;55.93
28344;BME280;15597;50.914;6.638;2023-03-20T02:09:09;101187.41;;;14.04;56.06
28344;BME280;15597;50.914;6.638;2023-03-20T02:11:41;101196.22;;;14.03;55.95
28344;BME280;15597;50.914;6.638;2023-03-20T02:14:08;101190.06;;;14.04;56.18
28344;BME280;15597;50.914;6.638;2023-03-20T02:16:45;101198.84;;;14.03;56.33
28344;BME280;15597;50.914;6.638;2023-03-20T02:28:26;101170.16;;;13.94;55.92
28344;BME280;15597;50.914;6.638;2023-03-20T02:31:11;101170.06;;;13.97;56.22
28344;BME280;15597;50.914;6.638;2023-03-20T02:34:21;101176.22;;;13.96;55.69
28344;BME280;15597;50.914;6.638;2023-03-20T02:42:49;101167.88;;;13.80;56.11
28344;BME280;15597;50.914;6.638;2023-03-20T02:45:26;101159.94;;;13.81;56.28
28344;BME280;15597;50.914;6.638;2023-03-20T02:48:23;101163.50;;;13.80;56.66
28344;BME280;15597;50.914;6.638;2023-03-20T03:01:53;101191.72;;;13.72;56.14
28344;BME280;15597;50.914;6.638;2023-03-20T03:04:24;101189.06;;;13.73;56.19
28344;BME280;15597;50.914;6.638;2023-03-20T03:06:51;101181.13;;;13.75;56.08
28344;BME280;15597;50.914;6.638;2023-03-20T03:09:23;101184.66;;;13.74;56.30
28344;BME280;15597;50.914;6.638;2023-03-20T03:11:56;101186.53;;;13.69;55.66
28344;BME280;15597;50.914;6.638;2023-03-20T03:14:29;101198.25;;;13.57;56.07
28344;BME280;15597;50.914;6.638;2023-03-20T03:16:58;101195.56;;;13.58;56.15
28344;BME280;15597;50.914;6.638;2023-03-20T03:19:27;101181.44;;;13.63;56.75
28344;BME280;15597;50.914;6.638;2023-03-20T03:21:54;101193.59;;;13.67;56.50
28344;BME280;15597;50.914;6.638;2023-03-20T03:24:37;101183.09;;;13.67;56.26
28344;BME280;15597;50.914;6.638;2023-03-20T03:27:10;101177.75;;;13.70;56.41
28344;BME280;15597;50.914;6.638;2023-03-20T03:29:38;101160.97;;;13.74;56.01
28344;BME280;15597;50.914;6.638;2023-03-20T03:32:06;101167.94;;;13.77;55.88
28344;BME280;15597;50.914;6.638;2023-03-20T03:34:33;101174.06;;;13.77;55.81
28344;BME280;15597;50.914;6.638;2023-03-20T03:37:09;101179.41;;;13.74;55.42
28344;BME280;15597;50.914;6.638;2023-03-20T03:39:50;101190.16;;;13.65;55.31
28344;BME280;15597;50.914;6.638;2023-03-20T03:45:15;101197.56;;;13.49;55.30
28344;BME280;15597;50.914;6.638;2023-03-20T03:47:53;101207.38;;;13.39;55.57
28344;BME280;15597;50.914;6.638;2023-03-20T03:50:40;101222.47;;;13.30;55.69
28344;BME280;15597;50.914;6.638;2023-03-20T03:53:13;101231.31;;;13.26;55.47
28344;BME280;15597;50.914;6.638;2023-03-20T03:55:53;101229.66;;;13.22;55.43
28344;BME280;15597;50.914;6.638;2023-03-20T03:58:28;101223.66;;;13.15;55.52
28344;BME280;15597;50.914;6.638;2023-03-20T04:00:57;101229.81;;;13.14;55.61
28344;BME280;15597;50.914;6.638;2023-03-20T04:03:30;101224.59;;;13.13;56.08
28344;BME280;15597;50.914;6.638;2023-03-20T04:05:59;101214.09;;;13.13;55.83
28344;BME280;15597;50.914;6.638;2023-03-20T04:08:26;101219.50;;;13.07;55.46
28344;BME280;15597;50.914;6.638;2023-03-20T04:10:52;101209.84;;;13.07;56.31
28344;BME280;15597;50.914;6.638;2023-03-20T04:13:17;101194.06;;;13.07;56.31
28344;BME280;15597;50.914;6.638;2023-03-20T04:15:43;101205.38;;;13.11;56.16
28344;BME280;15597;50.914;6.638;2023-03-20T04:18:16;101207.19;;;13.09;56.26
28344;BME280;15597;50.914;6.638;2023-03-20T04:20:45;101194.91;;;13.09;56.30
28344;BME280;15597;50.914;6.638;2023-03-20T04:23:12;101204.56;;;13.09;56.36
28344;BME280;15597;50.914;6.638;2023-03-20T04:25:37;101197.53;;;13.09;56.38
28344;BME280;15597;50.914;6.638;2023-03-20T04:28:03;101194.00;;;13.10;56.44
28344;BME280;15597;50.914;6.638;2023-03-20T04:30:53;101198.34;;;13.11;56.55
28344;BME280;15597;50.914;6.638;2023-03-20T04:33:31;101200.06;;;13.14;56.44
28344;BME280;15597;50.914;6.638;2023-03-20T04:36:02;101194.88;;;13.11;56.09
28344;BME280;15597;50.914;6.638;2023-03-20T04:38:28;101193.16;;;13.10;55.51
28344;BME280;15597;50.914;6.638;2023-03-20T04:40:54;101189.69;;;13.08;55.92
28344;BME280;15597;50.914;6.638;2023-03-20T04:43:20;101187.00;;;13.09;55.91
28344;BME280;15597;50.914;6.638;2023-03-20T04:45:46;101194.88;;;13.11;56.32
28344;BME280;15597;50.914;6.638;2023-03-20T04:48:12;101196.53;;;13.15;56.30
28344;BME280;15597;50.914;6.638;2023-03-20T04:50:38;101195.59;;;13.18;56.27
28344;BME280;15597;50.914;6.638;2023-03-20T04:53:04;101192.94;;;13.19;56.05
28344;BME280;15597;50.914;6.638;2023-03-20T04:55:30;101187.69;;;13.19;56.09
28344;BME280;15597;50.914;6.638;2023-03-20T04:57:55;101186.72;;;13.22;56.39
28344;BME280;15597;50.914;6.638;2023-03-20T05:00:22;101186.72;;;13.23;56.29
28344;BME280;15597;50.914;6.638;2023-03-20T05:02:48;101191.00;;;13.27;56.13
28344;BME280;15597;50.914;6.638;2023-03-20T05:05:15;101186.66;;;13.26;56.14
28344;BME280;15597;50.914;6.638;2023-03-20T05:07:41;101184.84;;;13.28;55.73
28344;BME280;15597;50.914;6.638;2023-03-20T05:10:10;101178.69;;;13.29;55.72
28344;BME280;15597;50.914;6.638;2023-03-20T05:12:45;101186.66;;;13.26;55.32
28344;BME280;15597;50.914;6.638;2023-03-20T05:15:30;101186.78;;;13.20;55.44
28344;BME280;15597;50.914;6.638;2023-03-20T05:18:23;101180.78;;;13.15;55.47
28344;BME280;15597;50.914;6.638;2023-03-20T05:21:02;101179.03;;;13.14;55.79
28344;BME280;15597;50.914;6.638;2023-03-20T05:23:47;101179.03;;;13.14;56.06
28344;BME280;15597;50.914;6.638;2023-03-20T05:26:45;101177.31;;;13.13;55.58
28344;BME280;15597;50.914;6.638;2023-03-20T05:29:23;101177.31;;;13.13;55.51
28344;BME280;15597;50.914;6.638;2023-03-20T05:32:15;101175.59;;;13.12;55.71
28344;BME280;15597;50.914;6.638;2023-03-20T05:34:58;101179.88;;;13.14;55.69
28344;BME280;15597;50.914;6.638;2023-03-20T05:37:41;101175.53;;;13.15;56.29
28344;BME280;15597;50.914;6.638;2023-03-20T05:40:18;101184.22;;;13.17;55.89
28344;BME280;15597;50.914;6.638;2023-03-20T05:43:10;101178.09;;;13.17;55.70
28344;BME280;15597;50.914;6.638;2023-03-20T05:45:52;101178.97;;;13.17;55.92
28344;BME280;15597;50.914;6.638;2023-03-20T05:48:36;101177.25;;;13.16;56.08
28344;BME280;15597;50.914;6.638;2023-03-20T05:51:31;101187.81;;;13.13;56.13
28344;BME280;15597;50.914;6.638;2023-03-20T05:54:06;101177.31;;;13.13;55.71
28344;BME280;15597;50.914;6.638;2023-03-20T05:56:48;101178.16;;;13.13;56.23
28344;BME280;15597;50.914;6.638;2023-03-20T05:59:33;101186.94;;;13.14;56.44
28344;BME280;15597;50.914;6.638;2023-03-20T06:02:17;101191.28;;;13.15;56.60
28344;BME280;15597;50.914;6.638;2023-03-20T06:04:52;101195.63;;;13.16;56.64
28344;BME280;15597;50.914;6.638;2023-03-20T06:07:24;101192.94;;;13.19;56.87
28344;BME280;15597;50.914;6.638;2023-03-20T06:09:58;101189.41;;;13.20;56.77
28344;BME280;15597;50.914;6.638;2023-03-20T06:12:25;101196.41;;;13.21;56.53
28344;BME280;15597;50.914;6.638;2023-03-20T06:14:51;101189.34;;;13.23;56.61
28344;BME280;15597;50.914;6.638;2023-03-20T06:17:17;101197.19;;;13.25;57.04
28344;BME280;15597;50.914;6.638;2023-03-20T06:19:47;101193.63;;;13.27;56.69
28344;BME280;15597;50.914;6.638;2023-03-20T06:22:13;101195.41;;;13.27;56.82
28344;BME280;15597;50.914;6.638;2023-03-20T06:24:39;101197.97;;;13.28;57.14
28344;BME280;15597;50.914;6.638;2023-03-20T06:27:05;101197.97;;;13.28;56.89
28344;BME280;15597;50.914;6.638;2023-03-20T06:29:32;101189.19;;;13.29;57.02
28344;BME280;15597;50.914;6.638;2023-03-20T06:32:09;101183.94;;;13.29;57.18
28344;BME280;15597;50.914;6.638;2023-03-20T06:34:37;101190.09;;;13.30;57.37
28344;BME280;15597;50.914;6.638;2023-03-20T06:37:02;101184.81;;;13.30;57.16
28344;BME280;15597;50.914;6.638;2023-03-20T06:39:28;101184.81;;;13.30;57.08
28344;BME280;15597;50.914;6.638;2023-03-20T06:41:54;101190.09;;;13.30;57.02
28344;BME280;15597;50.914;6.638;2023-03-20T06:44:22;101189.13;;;13.33;57.35
28344;BME280;15597;50.914;6.638;2023-03-20T06:47:10;101197.84;;;13.35;57.11
28344;BME280;15597;50.914;6.638;2023-03-20T06:49:35;101189.06;;;13.36;57.31
28344;BME280;15597;50.914;6.638;2023-03-20T06:52:01;101201.38;;;13.34;56.86
28344;BME280;15597;50.914;6.638;2023-03-20T06:54:27;101202.25;;;13.34;57.03
28344;BME280;15597;50.914;6.638;2023-03-20T06:56:53;101213.53;;;13.38;56.98
28344;BME280;15597;50.914;6.638;2023-03-20T06:59:20;101214.41;;;13.38;56.91
28344;BME280;15597;50.914;6.638;2023-03-20T07:01:45;101214.34;;;13.41;56.56
28344;BME280;15597;50.914;6.638;2023-03-20T07:04:11;101217.84;;;13.42;56.79
28344;BME280;15597;50.914;6.638;2023-03-20T07:06:43;101221.34;;;13.41;56.69
28344;BME280;15597;50.914;6.638;2023-03-20T07:09:10;101232.72;;;13.43;56.99
28344;BME280;15597;50.914;6.638;2023-03-20T07:11:36;101232.72;;;13.43;56.68
28344;BME280;15597;50.914;6.638;2023-03-20T07:14:02;101244.13;;;13.43;56.97
28344;BME280;15597;50.914;6.638;2023-03-20T07:16:41;101238.00;;;13.41;57.18
28344;BME280;15597;50.914;6.638;2023-03-20T07:19:06;101241.56;;;13.39;56.64
28344;BME280;15597;50.914;6.638;2023-03-20T07:21:34;101244.31;;;13.34;56.94
28344;BME280;15597;50.914;6.638;2023-03-20T07:24:00;101253.09;;;13.33;56.91
28344;BME280;15597;50.914;6.638;2023-03-20T07:26:26;101254.91;;;13.29;56.49
28344;BME280;15597;50.914;6.638;2023-03-20T07:28:51;101263.75;;;13.27;56.72
28344;BME280;15597;50.914;6.638;2023-03-20T07:31:25;101261.13;;;13.25;56.86
28344;BME280;15597;50.914;6.638;2023-03-20T07:34:00;101271.56;;;13.28;56.66
28344;BME280;15597;50.914;6.638;2023-03-20T07:36:25;101267.19;;;13.29;56.31
28344;BME280;15597;50.914;6.638;2023-03-20T07:38:51;101269.84;;;13.27;56.24
28344;BME280;15597;50.914;6.638;2023-03-20T07:41:17;101273.44;;;13.23;56.42
28344;BME280;15597;50.914;6.638;2023-03-20T07:43:52;101271.78;;;13.19;56.38
28344;BME280;15597;50.914;6.638;2023-03-20T07:46:37;101268.31;;;13.17;56.70
28344;BME280;15597;50.914;6.638;2023-03-20T07:49:05;101275.31;;;13.18;56.73
28344;BME280;15597;50.914;6.638;2023-03-20T07:51:31;101273.53;;;13.19;56.88
28344;BME280;15597;50.914;6.638;2023-03-20T07:53:56;101269.16;;;13.19;56.96
28344;BME280;15597;50.914;6.638;2023-03-20T07:56:22;101270.81;;;13.22;56.90
28344;BME280;15597;50.914;6.638;2023-03-20T07:58:47;101277.81;;;13.23;56.81
28344;BME280;15597;50.914;6.638;2023-03-20T08:01:13;101275.16;;;13.24;56.85
28344;BME280;15597;50.914;6.638;2023-03-20T08:03:39;101280.34;;;13.27;56.97
28344;BME280;15597;50.914;6.638;2023-03-20T08:06:05;101280.28;;;13.30;56.72
28344;BME280;15597;50.914;6.638;2023-03-20T08:08:34;101283.75;;;13.33;56.45
28344;BME280;15597;50.914;6.638;2023-03-20T08:11:00;101278.50;;;13.33;56.48
28344;BME280;15597;50.914;6.638;2023-03-20T08:13:26;101288.97;;;13.34;56.75
28344;BME280;15597;50.914;6.638;2023-03-20T08:15:51;101281.94;;;13.35;57.02
28344;BME280;15597;50.914;6.638;2023-03-20T08:18:17;101283.69;;;13.36;56.35
28344;BME280;15597;50.914;6.638;2023-03-20T08:20:44;101285.41;;;13.37;56.19
28344;BME280;15597;50.914;6.638;2023-03-20T08:23:10;101288.03;;;13.38;56.73
28344;BME280;15597;50.914;6.638;2023-03-20T08:25:37;101289.75;;;13.38;56.33
28344;BME280;15597;50.914;6.638;2023-03-20T08:28:03;101280.97;;;13.39;56.79
28344;BME280;15597;50.914;6.638;2023-03-20T08:30:28;101278.34;;;13.40;56.87
28344;BME280;15597;50.914;6.638;2023-03-20T08:32:54;101287.94;;;13.43;56.50
28344;BME280;15597;50.914;6.638;2023-03-20T08:35:20;101289.66;;;13.44;56.80
28344;BME280;15597;50.914;6.638;2023-03-20T08:37:46;101289.66;;;13.46;56.55
28344;BME280;15597;50.914;6.638;2023-03-20T08:40:11;101294.84;;;13.49;56.83
28344;BME280;15597;50.914;6.638;2023-03-20T08:42:37;101299.13;;;13.51;56.67
28344;BME280;15597;50.914;6.638;2023-03-20T08:45:03;101304.41;;;13.51;56.01
28344;BME280;15597;50.914;6.638;2023-03-20T08:47:28;101300.09;;;13.49;56.08
28344;BME280;15597;50.914;6.638;2023-03-20T08:49:54;101297.41;;;13.50;56.26
28344;BME280;15597;50.914;6.638;2023-03-20T08:52:20;101286.91;;;13.50;56.23
28344;BME280;15597;50.914;6.638;2023-03-20T08:54:45;101291.31;;;13.50;56.38
28344;BME280;15597;50.914;6.638;2023-03-20T08:57:11;101300.03;;;13.50;56.70
28344;BME280;15597;50.914;6.638;2023-03-20T08:59:37;101288.63;;;13.51;56.49
28344;BME280;15597;50.914;6.638;2023-03-20T09:02:03;101295.63;;;13.52;56.65
28344;BME280;15597;50.914;6.638;2023-03-20T09:04:28;101294.69;;;13.55;56.42
28344;BME280;15597;50.914;6.638;2023-03-20T09:06:54;101299.00;;;13.57;57.03
28344;BME280;15597;50.914;6.638;2023-03-20T09:09:19;101286.69;;;13.59;56.75
28344;BME280;15597;50.914;6.638;2023-03-20T09:11:50;101300.66;;;13.62;56.83
28344;BME280;15597;50.914;6.638;2023-03-20T09:14:16;101303.28;;;13.63;56.07
28344;BME280;15597;50.914;6.638;2023-03-20T09:16:41;101303.28;;;13.63;55.55
28344;BME280;15597;50.914;6.638;2023-03-20T09:19:07;101303.22;;;13.65;55.55
28344;BME280;15597;50.914;6.638;2023-03-20T09:21:33;101297.06;;;13.66;55.92
28344;BME280;15597;50.914;6.638;2023-03-20T09:23:58;101294.44;;;13.66;55.50
28344;BME280;15597;50.914;6.638;2023-03-20T09:26:24;101298.84;;;13.64;55.79
28344;BME280;15597;50.914;6.638;2023-03-20T09:28:49;101292.81;;;13.60;56.03
28344;BME280;15597;50.914;6.638;2023-03-20T09:31:15;101291.09;;;13.59;56.21
28344;BME280;15597;50.914;6.638;2023-03-20T09:33:41;101291.94;;;13.59;56.52
28344;BME280;15597;50.914;6.638;2023-03-20T09:36:06;101297.13;;;13.63;56.58
28344;BME280;15597;50.914;6.638;2023-03-20T09:38:36;101290.06;;;13.65;56.44
28344;BME280;15597;50.914;6.638;2023-03-20T09:41:02;101290.06;;;13.65;56.48
28344;BME280;15597;50.914;6.638;2023-03-20T09:51:59;101302.66;;;13.50;55.97
28344;BME280;15597;50.914;6.638;2023-03-20T09:54:27;101300.88;;;13.52;55.37
28344;BME280;15597;50.914;6.638;2023-03-20T09:56:55;101302.59;;;13.53;55.35
28344;BME280;15597;50.914;6.638;2023-03-20T09:59:23;101297.31;;;13.55;55.75
28344;BME280;15597;50.914;6.638;2023-03-20T10:01:51;101300.72;;;13.58;55.51
28344;BME280;15597;50.914;6.638;2023-03-20T10:04:17;101304.19;;;13.61;55.05
28344;BME280;15597;50.914;6.638;2023-03-20T10:06:43;101307.66;;;13.63;55.34
28344;BME280;15597;50.914;6.638;2023-03-20T10:17:03;101305.72;;;13.71;55.79
28344;BME280;15597;50.914;6.638;2023-03-20T10:19:38;101302.19;;;13.72;55.46
28344;BME280;15597;50.914;6.638;2023-03-20T10:22:25;101303.97;;;13.71;55.59
28344;BME280;15597;50.914;6.638;2023-03-20T10:27:39;101296.00;;;13.75;54.74
28344;BME280;15597;50.914;6.638;2023-03-20T10:40:54;101288.94;;;13.77;55.21
28344;BME280;15597;50.914;6.638;2023-03-20T10:43:27;101296.72;;;13.81;55.48
28344;BME280;15597;50.914;6.638;2023-03-20T10:50:56;101298.31;;;13.88;55.54
28344;BME280;15597;50.914;6.638;2023-03-20T10:55:54;101300.03;;;13.90;56.16
28344;BME280;15597;50.914;6.638;2023-03-20T10:58:26;101300.03;;;13.90;55.38
28344;BME280;15597;50.914;6.638;2023-03-20T11:00:54;101298.25;;;13.92;55.42
28344;BME280;15597;50.914;6.638;2023-03-20T11:03:31;101291.25;;;13.91;55.29
28344;BME280;15597;50.914;6.638;2023-03-20T11:06:15;101291.41;;;13.83;55.15
28344;BME280;15597;50.914;6.638;2023-03-20T11:08:47;101290.69;;;13.76;54.57
28344;BME280;15597;50.914;6.638;2023-03-20T11:11:21;101286.41;;;13.72;55.31
28344;BME280;15597;50.914;6.638;2023-03-20T11:13:46;101287.28;;;13.72;55.09
28344;BME280;15597;50.914;6.638;2023-03-20T11:18:49;101281.13;;;13.72;55.52
28344;BME280;15597;50.914;6.638;2023-03-20T11:21:22;101275.94;;;13.70;55.67
28344;BME280;15597;50.914;6.638;2023-03-20T11:23:49;101274.06;;;13.74;55.67
28344;BME280;15597;50.914;6.638;2023-03-20T11:26:18;101270.53;;;13.75;55.44
28344;BME280;15597;50.914;6.638;2023-03-20T11:28:50;101267.00;;;13.76;55.08
28344;BME280;15597;50.914;6.638;2023-03-20T11:31:34;101266.09;;;13.77;55.20
28344;BME280;15597;50.914;6.638;2023-03-20T11:36:39;101251.13;;;13.82;55.02
28344;BME280;15597;50.914;6.638;2023-03-20T11:39:21;101251.13;;;13.82;55.73
28344;BME280;15597;50.914;6.638;2023-03-20T11:41:51;101252.75;;;13.86;55.46
28344;BME280;15597;50.914;6.638;2023-03-20T11:44:29;101262.38;;;13.87;55.56
28344;BME280;15597;50.914;6.638;2023-03-20T11:47:03;101270.19;;;13.91;55.19
28344;BME280;15597;50.914;6.638;2023-03-20T11:49:32;101258.78;;;13.92;55.18
28344;BME280;15597;50.914;6.638;2023-03-20T11:52:11;101254.50;;;13.87;55.16
28344;BME280;15597;50.914;6.638;2023-03-20T11:54:38;101258.78;;;13.90;55.39
28344;BME280;15597;50.914;6.638;2023-03-20T11:57:30;101250.16;;;13.85;55.61
28344;BME280;15597;50.914;6.638;2023-03-20T11:59:56;101254.50;;;13.87;55.29
28344;BME280;15597;50.914;6.638;2023-03-20T12:02:24;101260.56;;;13.90;55.42
28344;BME280;15597;50.914;6.638;2023-03-20T12:04:50;101251.78;;;13.91;55.48
28344;BME280;15597;50.914;6.638;2023-03-20T12:07:23;101250.97;;;13.88;55.60
28344;BME280;15597;50.914;6.638;2023-03-20T12:09:57;101243.84;;;13.92;55.66
28344;BME280;15597;50.914;6.638;2023-03-20T12:12:48;101249.94;;;13.94;55.39
28344;BME280;15597;50.914;6.638;2023-03-20T12:15:24;101234.06;;;13.97;55.63
28344;BME280;15597;50.914;6.638;2023-03-20T12:20:40;101236.66;;;13.99;56.30
28344;BME280;15597;50.914;6.638;2023-03-20T12:25:39;101217.19;;;14.06;56.18
28344;BME280;15597;50.914;6.638;2023-03-20T12:28:19;101218.91;;;14.07;56.53
28344;BME280;15597;50.914;6.638;2023-03-20T12:36:00;101204.72;;;14.13;56.58
28344;BME280;15597;50.914;6.638;2023-03-20T12:38:31;101204.56;;;14.19;56.24
28344;BME280;15597;50.914;6.638;2023-03-20T12:41:09;101202.81;;;14.20;55.86
28344;BME280;15597;50.914;6.638;2023-03-20T12:43:49;101200.09;;;14.21;55.76
28344;BME280;15597;50.914;6.638;2023-03-20T12:46:25;101202.63;;;14.26;56.50
28344;BME280;15597;50.914;6.638;2023-03-20T12:49:41;101199.84;;;14.30;56.11
28344;BME280;15597;50.914;6.638;2023-03-20T12:52:05;101189.22;;;14.35;56.14
28344;BME280;15597;50.914;6.638;2023-03-20T12:54:42;101188.22;;;14.39;56.46
28344;BME280;15597;50.914;6.638;2023-03-20T13:00:21;101186.25;;;14.48;55.96
28344;BME280;15597;50.914;6.638;2023-03-20T13:05:44;101171.88;;;14.59;55.89
28344;BME280;15597;50.914;6.638;2023-03-20T13:11:01;101169.44;;;14.52;56.11
28344;BME280;15597;50.914;6.638;2023-03-20T13:16:23;101170.00;;;14.63;55.94
28344;BME280;15597;50.914;6.638;2023-03-20T13:22:14;101158.56;;;14.64;55.78
28344;BME280;15597;50.914;6.638;2023-03-20T13:24:47;101161.97;;;14.68;55.87
28344;BME280;15597;50.914;6.638;2023-03-20T13:27:23;101146.03;;;14.72;55.68
28344;BME280;15597;50.914;6.638;2023-03-20T13:30:12;101145.03;;;14.77;55.62
28344;BME280;15597;50.914;6.638;2023-03-20T13:35:35;101146.34;;;14.93;54.98
28344;BME280;15597;50.914;6.638;2023-03-20T13:38:19;101145.50;;;14.91;55.07
28344;BME280;15597;50.914;6.638;2023-03-20T13:40:46;101149.72;;;14.97;54.81
28344;BME280;15597;50.914;6.638;2023-03-20T13:46:05;101147.06;;;14.98;53.84
28344;BME280;15597;50.914;6.638;2023-03-20T13:48:40;101147.06;;;14.98;54.09
28344;BME280;15597;50.914;6.638;2023-03-20T13:51:21;101149.59;;;15.01;53.92
28344;BME280;15597;50.914;6.638;2023-03-20T13:54:22;101149.50;;;15.04;54.33
28344;BME280;15597;50.914;6.638;2023-03-20T13:57:08;101145.03;;;15.07;54.05
28344;BME280;15597;50.914;6.638;2023-03-20T13:59:38;101141.41;;;15.09;53.60
28344;BME280;15597;50.914;6.638;2023-03-20T14:02:32;101141.59;;;15.04;53.70
28344;BME280;15597;50.914;6.638;2023-03-20T14:05:17;101136.22;;;15.08;53.93
28344;BME280;15597;50.914;6.638;2023-03-20T14:07:46;101138.75;;;15.11;53.23
28344;BME280;15597;50.914;6.638;2023-03-20T14:13:08;101139.91;;;15.02;54.07
28344;BME280;15597;50.914;6.638;2023-03-20T14:15:37;101138.03;;;15.06;54.41
28344;BME280;15597;50.914;6.638;2023-03-20T14:18:06;101136.03;;;15.14;53.93
28344;BME280;15597;50.914;6.638;2023-03-20T14:20:38;101135.97;;;15.15;54.17
28344;BME280;15597;50.914;6.638;2023-03-20T14:23:05;101129.75;;;15.18;54.05
28344;BME280;15597;50.914;6.638;2023-03-20T14:25:35;101129.75;;;15.18;53.90
28344;BME280;15597;50.914;6.638;2023-03-20T14:30:44;101111.09;;;15.24;53.57
28344;BME280;15597;50.914;6.638;2023-03-20T14:36:13;101117.16;;;15.26;53.11
28344;BME280;15597;50.914;6.638;2023-03-20T14:38:56;101115.69;;;15.17;53.59
28344;BME280;15597;50.914;6.638;2023-03-20T14:47:18;101103.28;;;15.21;53.96
28344;BME280;15597;50.914;6.638;2023-03-20T14:52:44;101108.44;;;15.24;53.18
28344;BME280;15597;50.914;6.638;2023-03-20T14:57:42;101110.06;;;15.28;52.99
28344;BME280;15597;50.914;6.638;2023-03-20T15:00:18;101106.72;;;15.23;53.07
28344;BME280;15597;50.914;6.638;2023-03-20T15:02:47;101107.53;;;15.25;53.14
28344;BME280;15597;50.914;6.638;2023-03-20T15:05:27;101096.28;;;15.20;53.85
28344;BME280;15597;50.914;6.638;2023-03-20T15:08:03;101103.28;;;15.21;53.59
28344;BME280;15597;50.914;6.638;2023-03-20T15:10:31;101094.34;;;15.25;53.23
28344;BME280;15597;50.914;6.638;2023-03-20T15:12:58;101096.00;;;15.28;52.69
28344;BME280;15597;50.914;6.638;2023-03-20T15:15:27;101099.44;;;15.31;52.48
28344;BME280;15597;50.914;6.638;2023-03-20T15:17:53;101096.78;;;15.31;52.81
28344;BME280;15597;50.914;6.638;2023-03-20T15:20:20;101093.44;;;15.26;52.47
28344;BME280;15597;50.914;6.638;2023-03-20T15:22:53;101089.19;;;15.22;52.85
28344;BME280;15597;50.914;6.638;2023-03-20T15:25:22;101083.91;;;15.22;53.19
28344;BME280;15597;50.914;6.638;2023-03-20T15:27:49;101083.03;;;15.22;53.29